createdAt,value
2019-06-26T00:00:55.584Z,25.80
2019-06-26T00:03:25.967Z,25.80
2019-06-26T00:05:56.405Z,25.80
2019-06-26T00:08:26.781Z,25.80
2019-06-26T00:10:58.842Z,25.70
2019-06-26T00:13:29.296Z,25.70
2019-06-26T00:15:59.697Z,25.70
2019-06-26T00:18:30.409Z,25.60
2019-06-26T00:21:00.791Z,25.60
2019-06-26T00:23:32.751Z,25.60
2019-06-26T00:26:04.975Z,25.60
2019-06-26T00:28:35.421Z,25.60
2019-06-26T00:31:06.629Z,25.60
2019-06-26T00:33:37.058Z,25.60
2019-06-26T00:36:07.507Z,25.60
2019-06-26T00:38:40.205Z,25.60
2019-06-26T00:41:10.160Z,25.60
2019-06-26T00:43:42.531Z,25.50
2019-06-26T00:46:12.656Z,25.50
2019-06-26T00:48:43.145Z,25.50
2019-06-26T00:51:13.512Z,25.50
2019-06-26T00:53:43.945Z,25.50
2019-06-26T00:56:17.598Z,25.40
2019-06-26T00:58:48.024Z,25.40
2019-06-26T01:01:18.411Z,25.30
2019-06-26T01:03:50.461Z,25.30
2019-06-26T01:06:38.982Z,25.20
2019-06-26T01:09:09.540Z,25.20
2019-06-26T01:11:41.505Z,25.10
2019-06-26T01:16:42.050Z,25.10
2019-06-26T01:19:12.507Z,25.10
2019-06-26T01:21:42.921Z,25.00
2019-06-26T01:24:13.300Z,25.00
2019-06-26T01:26:43.719Z,25.00
2019-06-26T01:29:14.127Z,24.90
2019-06-26T01:31:44.504Z,24.90
2019-06-26T01:34:14.910Z,24.90
2019-06-26T01:36:45.297Z,24.90
2019-06-26T01:39:15.823Z,24.90
2019-06-26T01:41:47.861Z,24.90
2019-06-26T01:44:19.811Z,24.80
2019-06-26T01:46:50.221Z,24.80
2019-06-26T01:49:22.287Z,24.70
2019-06-26T01:51:52.677Z,24.70
2019-06-26T01:54:23.384Z,24.70
2019-06-26T01:56:53.888Z,24.70
2019-06-26T01:59:24.392Z,24.60
2019-06-26T02:01:54.844Z,24.60
2019-06-26T02:04:25.252Z,24.60
2019-06-26T02:06:55.666Z,24.60
2019-06-26T02:09:27.584Z,24.60
2019-06-26T02:12:00.405Z,24.50
2019-06-26T02:14:31.666Z,24.50
2019-06-26T02:17:02.534Z,24.50
2019-06-26T02:19:33.022Z,24.40
2019-06-26T02:22:03.504Z,24.40
2019-06-26T02:24:33.909Z,24.30
2019-06-26T02:27:04.312Z,24.30
2019-06-26T02:29:34.707Z,24.30
2019-06-26T02:32:05.178Z,24.30
2019-06-26T02:34:35.631Z,24.30
2019-06-26T02:37:07.621Z,24.30
2019-06-26T02:39:38.135Z,24.20
2019-06-26T02:42:08.554Z,24.20
2019-06-26T02:44:52.434Z,24.20
2019-06-26T02:47:19.190Z,24.20
2019-06-26T02:49:43.381Z,24.10
2019-06-26T02:52:13.963Z,24.10
2019-06-26T02:54:44.340Z,24.20
2019-06-26T02:57:14.737Z,24.10
2019-06-26T02:59:45.154Z,24.10
2019-06-26T03:02:15.587Z,24.00
2019-06-26T03:04:47.497Z,24.00
2019-06-26T03:07:17.888Z,24.00
2019-06-26T03:09:50.597Z,24.00
2019-06-26T03:12:21.018Z,24.00
2019-06-26T03:15:04.673Z,24.00
2019-06-26T03:17:23.591Z,24.10
2019-06-26T03:19:55.573Z,24.00
2019-06-26T03:22:25.992Z,24.10
2019-06-26T03:24:56.383Z,24.10
2019-06-26T03:27:26.786Z,24.10
2019-06-26T03:29:57.168Z,24.10
2019-06-26T03:32:27.607Z,24.10
2019-06-26T03:34:58.090Z,24.20
2019-06-26T03:37:28.689Z,24.20
2019-06-26T03:40:00.773Z,24.20
2019-06-26T03:42:31.169Z,24.20
2019-06-26T03:45:01.695Z,24.30
2019-06-26T03:47:32.333Z,24.30
2019-06-26T03:50:04.572Z,24.30
2019-06-26T03:52:35.009Z,24.30
2019-06-26T03:55:06.333Z,24.30
2019-06-26T03:57:36.728Z,24.40
2019-06-26T04:00:08.883Z,24.40
2019-06-26T04:02:39.314Z,24.50
2019-06-26T04:05:09.882Z,24.50
2019-06-26T04:07:40.672Z,24.60
2019-06-26T04:10:15.655Z,24.60
2019-06-26T04:12:46.864Z,24.70
2019-06-26T04:15:17.377Z,24.70
2019-06-26T04:17:47.793Z,24.70
2019-06-26T04:20:18.367Z,24.80
2019-06-26T04:22:49.278Z,24.80
2019-06-26T04:25:19.771Z,24.90
2019-06-26T04:27:50.404Z,24.90
2019-06-26T04:30:21.513Z,25.00
2019-06-26T04:32:51.892Z,25.10
2019-06-26T04:35:23.786Z,25.20
2019-06-26T04:37:54.226Z,25.30
2019-06-26T04:40:24.741Z,25.30
2019-06-26T04:42:55.386Z,25.30
2019-06-26T04:45:25.823Z,25.20
2019-06-26T04:47:57.712Z,25.30
2019-06-26T04:50:28.162Z,25.40
2019-06-26T04:52:58.562Z,25.50
2019-06-26T04:55:29.045Z,25.50
2019-06-26T04:57:59.452Z,25.50
2019-06-26T05:00:29.905Z,25.50
2019-06-26T05:03:00.353Z,25.70
2019-06-26T05:05:39.724Z,25.70
2019-06-26T05:08:02.864Z,25.80
2019-06-26T05:10:33.318Z,25.80
2019-06-26T05:13:03.826Z,25.90
2019-06-26T05:15:34.279Z,26.10
2019-06-26T05:18:04.717Z,26.10
2019-06-26T05:20:35.155Z,26.20
2019-06-26T05:23:05.798Z,26.30
2019-06-26T05:25:36.210Z,26.40
2019-06-26T05:28:08.463Z,26.60
2019-06-26T05:30:39.089Z,26.80
2019-06-26T05:33:09.463Z,27.00
2019-06-26T05:35:39.884Z,27.20
2019-06-26T05:38:10.371Z,27.40
2019-06-26T05:40:41.032Z,27.70
2019-06-26T05:43:13.705Z,28.00
2019-06-26T05:45:44.196Z,28.50
2019-06-26T05:48:14.616Z,29.10
2019-06-26T05:50:45.207Z,29.60
2019-06-26T05:53:15.644Z,30.10
2019-06-26T05:55:46.151Z,30.50
2019-06-26T05:58:16.663Z,30.90
2019-06-26T06:00:48.110Z,31.30
2019-06-26T06:03:18.762Z,32.00
2019-06-26T06:05:49.355Z,33.10
2019-06-26T06:08:19.794Z,35.00
2019-06-26T06:10:50.283Z,36.70
2019-06-26T06:13:20.688Z,38.50
2019-06-26T06:15:51.114Z,39.70
2019-06-26T06:18:21.478Z,40.40
2019-06-26T06:20:51.877Z,41.00
2019-06-26T06:23:23.156Z,41.80
2019-06-26T06:25:53.584Z,42.80
2019-06-26T06:28:23.959Z,43.80
2019-06-26T06:30:54.376Z,44.40
2019-06-26T06:33:24.935Z,44.80
2019-06-26T06:35:55.423Z,45.10
2019-06-26T06:38:25.791Z,45.20
2019-06-26T06:43:26.239Z,45.90
2019-06-26T06:45:56.704Z,46.10
2019-06-26T06:48:27.126Z,46.70
2019-06-26T06:50:58.323Z,47.10
2019-06-26T06:53:28.751Z,48.40
2019-06-26T06:55:59.139Z,48.90
2019-06-26T06:58:30.332Z,49.50
2019-06-26T07:01:02.605Z,49.50
2019-06-26T07:03:34.673Z,50.40
2019-06-26T07:06:06.825Z,51.40
2019-06-26T07:08:37.419Z,51.50
2019-06-26T07:11:07.815Z,51.70
2019-06-26T07:13:38.297Z,51.70
2019-06-26T07:16:10.134Z,51.50
2019-06-26T07:18:40.597Z,51.70
2019-06-26T07:21:12.473Z,52.20
2019-06-26T07:23:42.979Z,52.40
2019-06-26T07:26:13.560Z,53.10
2019-06-26T07:28:44.061Z,53.30
2019-06-26T07:31:14.509Z,52.30
2019-06-26T07:33:45.035Z,51.90
2019-06-26T07:36:15.464Z,51.30
2019-06-26T07:38:45.837Z,51.60
2019-06-26T07:41:16.263Z,51.70
2019-06-26T07:43:46.646Z,52.80
2019-06-26T07:46:17.257Z,53.60
2019-06-26T07:48:47.702Z,52.90
2019-06-26T07:51:18.200Z,52.40
2019-06-26T07:53:48.670Z,51.20
2019-06-26T07:56:19.084Z,50.00
2019-06-26T07:58:49.468Z,49.90
2019-06-26T08:01:19.860Z,50.30
2019-06-26T08:03:50.573Z,50.50
2019-06-26T08:06:21.101Z,50.80
2019-06-26T08:08:51.540Z,51.20
2019-06-26T08:11:23.513Z,50.90
2019-06-26T08:13:53.889Z,51.10
2019-06-26T08:16:24.317Z,52.00
2019-06-26T08:18:54.768Z,52.20
2019-06-26T08:21:25.244Z,52.10
2019-06-26T08:23:55.674Z,52.50
2019-06-26T08:26:27.637Z,52.40
2019-06-26T08:28:58.084Z,53.40
2019-06-26T08:31:28.488Z,55.00
2019-06-26T08:33:59.002Z,55.90
2019-06-26T08:36:29.549Z,55.50
2019-06-26T08:38:59.941Z,55.70
2019-06-26T08:41:30.489Z,54.90
2019-06-26T08:44:00.942Z,54.50
2019-06-26T08:46:31.420Z,55.80
2019-06-26T08:49:03.307Z,57.00
2019-06-26T08:51:33.759Z,57.90
2019-06-26T08:54:04.888Z,58.60
2019-06-26T08:56:36.308Z,59.00
2019-06-26T08:59:06.703Z,59.20
2019-06-26T09:01:37.181Z,58.60
2019-06-26T09:04:07.572Z,58.50
2019-06-26T09:06:38.077Z,58.50
2019-06-26T09:09:08.525Z,57.30
2019-06-26T09:11:38.957Z,56.60
2019-06-26T09:14:09.387Z,55.90
2019-06-26T09:16:39.806Z,56.80
2019-06-26T09:19:10.177Z,56.90
2019-06-26T09:21:40.769Z,56.20
2019-06-26T09:24:11.305Z,55.50
2019-06-26T09:26:41.770Z,54.70
2019-06-26T09:29:12.272Z,54.80
2019-06-26T09:31:42.663Z,55.20
2019-06-26T09:34:13.141Z,54.60
2019-06-26T09:36:43.588Z,53.20
2019-06-26T09:39:14.116Z,52.30
2019-06-26T09:41:46.167Z,52.00
2019-06-26T09:44:18.042Z,52.40
2019-06-26T09:46:48.461Z,52.70
2019-06-26T09:49:20.404Z,53.50
2019-06-26T09:51:50.826Z,52.60
2019-06-26T09:54:21.314Z,51.20
2019-06-26T09:56:51.704Z,50.00
2019-06-26T09:59:22.112Z,49.50
2019-06-26T10:01:52.840Z,48.00
2019-06-26T10:04:23.643Z,45.80
2019-06-26T10:06:54.129Z,44.20
2019-06-26T10:09:24.595Z,42.60
2019-06-26T10:11:55.090Z,41.40
2019-06-26T10:14:46.097Z,40.50
2019-06-26T10:16:59.131Z,39.70
2019-06-26T10:19:29.689Z,38.70
2019-06-26T10:22:00.244Z,37.90
2019-06-26T10:24:30.623Z,37.50
2019-06-26T10:27:01.134Z,36.80
2019-06-26T10:29:31.557Z,36.40
2019-06-26T10:32:02.095Z,36.10
2019-06-26T10:34:32.684Z,36.00
2019-06-26T10:37:03.258Z,35.70
2019-06-26T10:39:33.766Z,35.60
2019-06-26T10:42:07.443Z,35.50
2019-06-26T10:44:37.994Z,35.40
2019-06-26T10:47:08.497Z,35.30
2019-06-26T10:49:38.908Z,35.20
2019-06-26T10:52:10.804Z,35.30
2019-06-26T10:54:44.326Z,35.30
2019-06-26T10:57:13.337Z,35.30
2019-06-26T10:59:43.785Z,35.20
2019-06-26T11:02:16.862Z,35.00
2019-06-26T11:04:46.302Z,35.00
2019-06-26T11:07:16.708Z,34.90
2019-06-26T11:09:47.256Z,34.90
2019-06-26T11:12:19.519Z,34.90
2019-06-26T11:14:55.473Z,34.90
2019-06-26T11:17:25.967Z,34.90
2019-06-26T11:19:56.340Z,34.90
2019-06-26T11:22:26.801Z,35.00
2019-06-26T11:24:59.100Z,34.90
2019-06-26T11:27:29.565Z,34.80
2019-06-26T11:30:00.044Z,34.90
2019-06-26T11:32:30.463Z,35.00
2019-06-26T11:35:02.005Z,34.90
2019-06-26T11:37:34.074Z,34.90
2019-06-26T11:40:06.309Z,34.90
2019-06-26T11:42:38.190Z,34.80
2019-06-26T11:45:09.163Z,34.60
2019-06-26T11:47:39.652Z,34.60
2019-06-26T11:50:11.270Z,34.50
2019-06-26T11:52:41.739Z,34.40
2019-06-26T11:55:12.677Z,34.40
2019-06-26T11:57:43.177Z,34.40
2019-06-26T12:00:16.266Z,34.40
2019-06-26T12:02:46.756Z,34.40
2019-06-26T12:05:18.617Z,34.40
2019-06-26T12:07:49.898Z,34.50
2019-06-26T12:10:20.908Z,34.60
2019-06-26T12:12:51.396Z,34.60
2019-06-26T12:15:23.676Z,34.60
2019-06-26T12:17:54.170Z,34.60
2019-06-26T12:20:24.600Z,34.70
2019-06-26T12:22:55.032Z,34.60
2019-06-26T12:25:25.407Z,34.40
2019-06-26T12:27:55.867Z,34.40
2019-06-26T12:30:26.247Z,34.40
2019-06-26T12:33:03.087Z,34.40
2019-06-26T12:35:28.800Z,34.50
2019-06-26T12:37:59.180Z,34.50
2019-06-26T12:40:31.295Z,34.40
2019-06-26T12:43:01.762Z,34.50
2019-06-26T12:45:32.293Z,34.60
2019-06-26T12:48:02.750Z,34.60
2019-06-26T12:50:35.910Z,34.70
2019-06-26T12:53:05.342Z,34.70
2019-06-26T12:55:35.753Z,34.70
2019-06-26T12:58:14.792Z,34.70
2019-06-26T13:00:39.738Z,34.70
2019-06-26T13:03:10.160Z,34.70
2019-06-26T13:05:40.552Z,34.70
2019-06-26T13:08:10.941Z,34.80
2019-06-26T13:10:49.527Z,34.80
2019-06-26T13:13:15.088Z,34.80
2019-06-26T13:15:45.529Z,34.70
2019-06-26T13:18:15.954Z,34.60
2019-06-26T13:20:52.661Z,34.60
2019-06-26T13:23:18.659Z,34.60
2019-06-26T13:25:49.136Z,34.50
2019-06-26T13:28:19.568Z,34.50
2019-06-26T13:30:53.050Z,34.50
2019-06-26T13:33:22.050Z,34.50
2019-06-26T13:35:52.452Z,34.50
2019-06-26T13:38:27.074Z,34.50
2019-06-26T13:40:56.552Z,34.50
2019-06-26T13:43:26.979Z,34.50
2019-06-26T13:45:59.056Z,34.50
2019-06-26T13:48:29.640Z,34.60
2019-06-26T13:51:09.292Z,34.60
2019-06-26T13:53:32.123Z,34.60
2019-06-26T13:56:02.901Z,34.50
2019-06-26T13:58:33.388Z,34.50
2019-06-26T14:01:04.269Z,34.40
2019-06-26T14:03:39.249Z,34.40
2019-06-26T14:06:09.830Z,34.40
2019-06-26T14:08:40.263Z,34.50
2019-06-26T14:11:10.716Z,34.50
2019-06-26T14:13:42.029Z,34.50
2019-06-26T14:16:12.705Z,34.50
2019-06-26T14:18:43.124Z,34.50
2019-06-26T14:21:24.940Z,34.50
2019-06-26T14:23:45.639Z,34.50
2019-06-26T14:26:17.544Z,34.50
2019-06-26T14:28:48.052Z,34.50
2019-06-26T14:31:25.905Z,34.50
2019-06-26T14:33:56.201Z,34.50
2019-06-26T14:36:26.619Z,34.50
2019-06-26T14:38:59.296Z,34.40
2019-06-26T14:41:29.599Z,34.40
2019-06-26T14:44:02.412Z,34.40
2019-06-26T14:46:32.569Z,34.50
2019-06-26T14:49:02.801Z,34.50
2019-06-26T14:51:46.450Z,34.50
2019-06-26T14:54:06.834Z,34.50
2019-06-26T14:56:37.101Z,34.50
2019-06-26T14:59:07.452Z,34.50
2019-06-26T15:01:37.868Z,34.50
2019-06-26T15:04:09.636Z,34.50
2019-06-26T15:06:39.913Z,34.50
2019-06-26T15:09:10.235Z,34.50
2019-06-26T15:11:40.434Z,34.50
2019-06-26T15:14:10.860Z,34.50
2019-06-26T15:16:41.143Z,34.50
2019-06-26T15:19:11.412Z,34.50
2019-06-26T15:21:54.181Z,34.40
2019-06-26T15:24:15.241Z,34.40
2019-06-26T15:26:45.445Z,34.40
2019-06-26T15:29:15.690Z,34.30
2019-06-26T15:31:45.999Z,34.30
2019-06-26T15:34:17.891Z,34.30
2019-06-26T15:36:48.092Z,34.30
2019-06-26T15:39:18.332Z,34.20
2019-06-26T15:41:48.576Z,34.20
2019-06-26T15:44:18.877Z,34.20
2019-06-26T15:46:49.206Z,34.20
2019-06-26T15:49:19.456Z,34.10
2019-06-26T15:51:49.789Z,34.10
2019-06-26T15:54:20.195Z,34.10
2019-06-26T15:56:50.629Z,34.10
2019-06-26T15:59:21.001Z,34.00
2019-06-26T16:01:54.367Z,34.00
2019-06-26T16:04:26.570Z,34.00
2019-06-26T16:06:58.652Z,34.00
2019-06-26T16:09:28.932Z,34.00
2019-06-26T16:11:59.356Z,34.00
2019-06-26T16:14:29.627Z,33.90
2019-06-26T16:17:01.614Z,33.90
2019-06-26T16:19:33.460Z,33.90
2019-06-26T16:22:03.901Z,33.90
2019-06-26T16:24:34.149Z,33.80
2019-06-26T16:27:04.551Z,33.80
2019-06-26T16:29:34.961Z,33.80
2019-06-26T16:32:05.327Z,33.80
2019-06-26T16:34:35.699Z,33.80
2019-06-26T16:37:06.018Z,33.70
2019-06-26T16:39:36.324Z,33.60
2019-06-26T16:42:06.700Z,33.60
2019-06-26T16:44:37.001Z,33.60
2019-06-26T16:47:07.270Z,33.50
2019-06-26T16:49:37.629Z,33.50
2019-06-26T16:52:08.070Z,33.50
2019-06-26T16:54:39.918Z,33.40
2019-06-26T16:57:10.534Z,33.40
2019-06-26T16:59:40.816Z,33.40
2019-06-26T17:02:11.137Z,33.30
2019-06-26T17:04:41.595Z,33.30
2019-06-26T17:07:12.083Z,33.30
2019-06-26T17:09:44.449Z,33.20
2019-06-26T17:12:14.428Z,33.20
2019-06-26T17:14:44.787Z,33.20
2019-06-26T17:17:16.764Z,33.10
2019-06-26T17:19:47.001Z,33.10
2019-06-26T17:22:17.296Z,33.00
2019-06-26T17:24:47.748Z,33.00
2019-06-26T17:27:18.017Z,32.90
2019-06-26T17:29:48.349Z,32.90
2019-06-26T17:32:18.664Z,32.80
2019-06-26T17:34:49.059Z,32.70
2019-06-26T17:37:19.301Z,32.70
2019-06-26T17:39:49.727Z,32.60
2019-06-26T17:42:20.149Z,32.60
2019-06-26T17:44:50.463Z,32.60
2019-06-26T17:47:20.817Z,32.60
2019-06-26T17:49:51.067Z,32.60
2019-06-26T17:52:21.452Z,32.50
2019-06-26T17:54:51.742Z,32.50
2019-06-26T17:57:21.955Z,32.50
2019-06-26T17:59:52.140Z,32.40
2019-06-26T18:02:24.236Z,32.40
2019-06-26T18:04:56.357Z,32.30
2019-06-26T18:07:26.643Z,32.30
2019-06-26T18:09:57.118Z,32.30
2019-06-26T18:12:27.457Z,32.10
2019-06-26T18:14:57.776Z,32.10
2019-06-26T18:17:28.043Z,32.00
2019-06-26T18:19:58.465Z,32.00
2019-06-26T18:22:28.870Z,31.90
2019-06-26T18:25:00.999Z,31.90
2019-06-26T18:27:31.360Z,31.90
2019-06-26T18:30:02.658Z,31.80
2019-06-26T18:32:32.851Z,31.80
2019-06-26T18:35:03.831Z,31.70
2019-06-26T18:37:34.116Z,31.60
2019-06-26T18:40:09.062Z,31.60
2019-06-26T18:42:39.318Z,31.60
2019-06-26T18:45:09.755Z,31.50
2019-06-26T18:47:39.996Z,31.50
2019-06-26T18:50:10.756Z,31.40
2019-06-26T18:52:41.256Z,31.30
2019-06-26T18:55:11.594Z,31.30
2019-06-26T18:57:42.056Z,31.20
2019-06-26T19:00:12.378Z,31.20
2019-06-26T19:02:42.637Z,31.20
2019-06-26T19:05:13.909Z,31.10
2019-06-26T19:07:44.280Z,31.00
2019-06-26T19:10:14.835Z,31.00
2019-06-26T19:12:45.443Z,30.90
2019-06-26T19:15:16.611Z,30.90
2019-06-26T19:17:48.607Z,30.80
2019-06-26T19:20:19.853Z,30.80
2019-06-26T19:22:50.095Z,30.70
2019-06-26T19:25:20.501Z,30.60
2019-06-26T19:27:50.795Z,30.60
2019-06-26T19:30:21.516Z,30.50
2019-06-26T19:32:52.001Z,30.50
2019-06-26T19:35:22.378Z,30.40
2019-06-26T19:37:52.835Z,30.30
2019-06-26T19:40:24.261Z,30.30
2019-06-26T19:42:55.481Z,30.20
2019-06-26T19:45:26.365Z,30.20
2019-06-26T19:47:58.081Z,30.20
2019-06-26T19:50:28.605Z,30.10
2019-06-26T19:53:01.662Z,30.10
2019-06-26T19:55:32.346Z,30.00
2019-06-26T19:58:02.780Z,30.00
2019-06-26T20:00:34.114Z,30.00
2019-06-26T20:03:04.847Z,29.90
2019-06-26T20:05:35.579Z,29.90
2019-06-26T20:08:06.023Z,29.90
2019-06-26T20:10:36.410Z,29.90
2019-06-26T20:13:06.925Z,29.80
2019-06-26T20:15:39.531Z,29.80
2019-06-26T20:18:10.009Z,29.70
2019-06-26T20:20:40.325Z,29.60
2019-06-26T20:23:10.577Z,29.60
2019-06-26T20:25:43.338Z,29.50
2019-06-26T20:28:13.668Z,29.50
2019-06-26T20:30:44.610Z,29.40
2019-06-26T20:33:15.136Z,29.30
2019-06-26T20:35:47.162Z,29.20
2019-06-26T20:38:17.789Z,29.20
2019-06-26T20:40:48.493Z,29.10
2019-06-26T20:43:18.940Z,29.00
2019-06-26T20:45:49.404Z,29.00
2019-06-26T20:48:20.017Z,29.00
2019-06-26T20:50:50.478Z,29.00
2019-06-26T20:53:22.343Z,29.00
2019-06-26T20:55:54.105Z,29.00
2019-06-26T20:58:24.753Z,28.90
2019-06-26T21:00:56.986Z,28.90
2019-06-26T21:03:28.241Z,28.90
2019-06-26T21:05:58.740Z,28.90
2019-06-26T21:08:29.671Z,28.90
2019-06-26T21:11:00.519Z,28.90
2019-06-26T21:13:31.460Z,28.90
2019-06-26T21:16:01.850Z,28.80
2019-06-26T21:18:32.385Z,28.80
2019-06-26T21:21:02.851Z,28.80
2019-06-26T21:23:34.060Z,28.80
2019-06-26T21:26:04.564Z,28.80
2019-06-26T21:28:36.334Z,28.70
2019-06-26T21:31:07.052Z,28.70
2019-06-26T21:33:39.075Z,28.60
2019-06-26T21:36:09.419Z,28.50
2019-06-26T21:38:41.299Z,28.50
2019-06-26T21:41:11.664Z,28.40
2019-06-26T21:43:42.034Z,28.40
2019-06-26T21:46:13.924Z,28.30
2019-06-26T21:48:44.274Z,28.30
2019-06-26T21:51:14.684Z,28.20
2019-06-26T21:53:45.244Z,28.20
2019-06-26T21:56:15.590Z,28.10
2019-06-26T21:58:45.929Z,28.10
2019-06-26T22:01:16.628Z,28.10
2019-06-26T22:03:47.040Z,28.10
2019-06-26T22:06:17.380Z,28.00
2019-06-26T22:08:47.792Z,28.00
2019-06-26T22:11:18.199Z,28.00
2019-06-26T22:13:49.116Z,28.00
2019-06-26T22:16:19.280Z,28.00
2019-06-26T22:18:49.480Z,27.90
2019-06-26T22:21:19.970Z,27.90
2019-06-26T22:23:50.209Z,27.90
2019-06-26T22:26:20.615Z,27.80
2019-06-26T22:28:50.925Z,27.80
2019-06-26T22:31:21.352Z,27.70
2019-06-26T22:33:51.660Z,27.70
2019-06-26T22:36:22.101Z,27.70
2019-06-26T22:38:52.473Z,27.70
2019-06-26T22:41:22.810Z,27.60
2019-06-26T22:43:53.037Z,27.60
2019-06-26T22:46:23.460Z,27.60
2019-06-26T22:48:53.809Z,27.60
2019-06-26T22:51:25.685Z,27.50
2019-06-26T22:53:56.059Z,27.60
2019-06-26T22:56:27.921Z,27.50
2019-06-26T22:58:58.331Z,27.50
2019-06-26T23:01:28.629Z,27.50
2019-06-26T23:03:58.977Z,27.50
2019-06-26T23:06:29.272Z,27.40
2019-06-26T23:08:59.627Z,27.40
2019-06-26T23:11:29.937Z,27.40
2019-06-26T23:14:00.274Z,27.30
2019-06-26T23:16:30.817Z,27.30
2019-06-26T23:19:01.180Z,27.20
2019-06-26T23:21:33.138Z,27.20
2019-06-26T23:24:03.542Z,27.10
2019-06-26T23:26:35.393Z,27.10
2019-06-26T23:29:05.814Z,27.10
2019-06-26T23:31:36.200Z,27.10
2019-06-26T23:34:06.570Z,27.00
2019-06-26T23:36:36.890Z,27.00
2019-06-26T23:39:07.321Z,26.90
2019-06-26T23:41:37.769Z,27.00
2019-06-26T23:44:08.113Z,27.00
2019-06-26T23:46:38.500Z,27.00
2019-06-26T23:49:08.852Z,26.90
2019-06-26T23:51:39.158Z,26.90
2019-06-26T23:54:09.445Z,26.90
2019-06-26T23:56:40.970Z,26.90
2019-06-26T23:59:11.374Z,26.90
